createdAt,value
2023-03-25T00:00:49.937Z,99091.84
2023-03-25T00:02:23.539Z,99091.44
2023-03-25T00:03:55.509Z,99080.44
2023-03-25T00:05:28.110Z,99082.72
2023-03-25T00:07:00.114Z,99082.34
2023-03-25T00:08:32.482Z,99087.31
2023-03-25T00:10:04.659Z,99079.78
2023-03-25T00:11:36.532Z,99086.47
2023-03-25T00:13:08.574Z,99084.91
2023-03-25T00:14:40.397Z,99077.44
2023-03-25T00:16:12.268Z,99075.06
2023-03-25T00:17:44.420Z,99079.03
2023-03-25T00:19:16.367Z,99083.72
2023-03-25T00:20:52.778Z,99079.78
2023-03-25T00:22:24.581Z,99075.69
2023-03-25T00:23:56.487Z,99071.56
2023-03-25T00:25:28.383Z,99068.34
2023-03-25T00:27:00.168Z,99069.50
2023-03-25T00:28:35.325Z,99071.59
2023-03-25T00:30:09.117Z,99062.84
2023-03-25T00:31:41.680Z,99064.16
2023-03-25T00:33:18.309Z,99058.91
2023-03-25T00:34:50.148Z,99057.50
2023-03-25T00:36:21.996Z,99047.03
2023-03-25T00:37:57.932Z,99063.28
2023-03-25T00:39:29.844Z,99061.78
2023-03-25T00:41:25.838Z,99058.81
2023-03-25T00:42:57.848Z,99061.50
2023-03-25T00:44:30.437Z,99050.16
2023-03-25T00:46:02.409Z,99059.22
2023-03-25T00:47:34.279Z,99064.75
2023-03-25T00:49:07.540Z,99060.34
2023-03-25T00:50:39.356Z,99054.44
2023-03-25T00:52:11.178Z,99057.28
2023-03-25T00:53:42.972Z,99060.09
2023-03-25T00:55:15.460Z,99058.56
2023-03-25T00:56:47.403Z,99058.84
2023-03-25T00:58:19.217Z,99053.75
2023-03-25T00:59:51.649Z,99069.88
2023-03-25T01:01:29.635Z,99072.97
2023-03-25T01:03:04.433Z,99064.34
2023-03-25T01:04:41.416Z,99070.72
2023-03-25T01:06:17.113Z,99070.00
2023-03-25T01:07:49.710Z,99072.00
2023-03-25T01:09:21.906Z,99057.00
2023-03-25T01:10:56.607Z,99062.50
2023-03-25T01:12:28.686Z,99051.94
2023-03-25T01:14:02.135Z,99060.09
2023-03-25T01:15:34.127Z,99051.38
2023-03-25T01:17:06.179Z,99051.38
2023-03-25T01:18:38.867Z,99047.69
2023-03-25T01:20:11.062Z,99050.53
2023-03-25T01:21:42.867Z,99047.69
2023-03-25T01:23:14.722Z,99042.31
2023-03-25T01:24:46.656Z,99041.47
2023-03-25T01:26:20.077Z,99038.63
2023-03-25T01:27:52.098Z,99032.28
2023-03-25T01:29:24.391Z,99036.66
2023-03-25T01:31:06.520Z,99024.06
2023-03-25T01:32:38.991Z,99028.31
2023-03-25T01:34:11.378Z,99016.59
2023-03-25T01:35:43.414Z,99018.97
2023-03-25T01:37:15.487Z,99034.97
2023-03-25T01:38:48.315Z,99020.38
2023-03-25T01:40:26.529Z,99018.41
2023-03-25T01:41:58.429Z,99018.84
2023-03-25T01:43:32.038Z,99022.09
2023-03-25T01:45:21.298Z,99020.25
2023-03-25T01:46:54.360Z,99015.25
2023-03-25T01:48:36.083Z,99017.66
2023-03-25T01:50:08.958Z,99014.69
2023-03-25T01:51:45.785Z,99008.06
2023-03-25T01:53:18.060Z,98999.00
2023-03-25T01:54:52.432Z,98996.03
2023-03-25T01:56:30.950Z,98995.00
2023-03-25T01:58:07.689Z,99001.78
2023-03-25T01:59:40.445Z,98981.84
2023-03-25T02:01:15.433Z,98990.63
2023-03-25T02:02:47.742Z,98988.78
2023-03-25T02:04:27.661Z,98993.00
2023-03-25T02:06:09.088Z,98987.47
2023-03-25T02:07:43.137Z,98992.72
2023-03-25T02:09:18.315Z,98998.34
2023-03-25T02:10:50.501Z,98994.66
2023-03-25T02:12:22.287Z,98995.38
2023-03-25T02:13:58.866Z,98992.69
2023-03-25T02:15:41.341Z,98989.00
2023-03-25T02:17:29.319Z,98985.28
2023-03-25T02:19:22.717Z,98990.66
2023-03-25T02:21:25.465Z,98987.00
2023-03-25T02:23:05.484Z,98982.31
2023-03-25T02:24:47.142Z,98982.19
2023-03-25T02:26:44.159Z,98975.09
2023-03-25T02:28:40.197Z,98978.66
2023-03-25T02:30:38.459Z,98972.28
2023-03-25T02:32:31.106Z,98978.34
2023-03-25T02:34:24.682Z,98978.91
2023-03-25T02:36:23.974Z,98973.66
2023-03-25T02:38:14.054Z,98965.28
2023-03-25T02:40:11.041Z,98962.59
2023-03-25T02:41:48.863Z,98964.00
2023-03-25T02:43:46.090Z,98963.03
2023-03-25T02:45:24.652Z,98961.72
2023-03-25T02:51:25.433Z,98949.34
2023-03-25T02:53:06.288Z,98950.06
2023-03-25T02:54:41.675Z,98950.75
2023-03-25T02:56:17.218Z,98960.34
2023-03-25T02:57:53.074Z,98963.03
2023-03-25T02:59:30.273Z,98963.88
2023-03-25T03:01:03.364Z,98974.66
2023-03-25T03:02:35.500Z,98965.59
2023-03-25T03:04:07.697Z,98970.13
2023-03-25T03:05:44.473Z,98965.59
2023-03-25T03:07:24.180Z,98970.97
2023-03-25T03:09:12.558Z,98967.59
2023-03-25T03:11:03.793Z,98963.75
2023-03-25T03:12:55.794Z,98955.97
2023-03-25T03:15:00.892Z,98945.53
2023-03-25T03:16:58.748Z,98954.59
2023-03-25T03:18:46.266Z,98958.13
2023-03-25T03:20:45.225Z,98950.97
2023-03-25T03:22:39.676Z,98955.63
2023-03-25T03:24:32.667Z,98958.63
2023-03-25T03:26:24.450Z,98958.91
2023-03-25T03:28:05.854Z,98954.53
2023-03-25T03:29:48.856Z,98953.28
2023-03-25T03:31:50.824Z,98950.75
2023-03-25T03:33:50.855Z,98954.75
2023-03-25T03:35:32.850Z,98962.81
2023-03-25T03:37:07.209Z,98967.47
2023-03-25T03:38:43.509Z,98963.25
2023-03-25T03:40:19.985Z,98965.25
2023-03-25T03:41:55.554Z,98972.59
2023-03-25T03:43:42.280Z,98964.00
2023-03-25T03:45:19.131Z,98966.69
2023-03-25T03:46:55.530Z,98962.31
2023-03-25T03:48:38.787Z,98962.59
2023-03-25T03:50:16.141Z,98968.94
2023-03-25T03:51:56.814Z,98970.97
2023-03-25T03:53:40.962Z,98968.28
2023-03-25T03:55:29.422Z,98979.69
2023-03-25T03:57:21.055Z,98976.34
2023-03-25T03:58:54.754Z,98975.34
2023-03-25T04:00:32.528Z,98981.13
2023-03-25T04:02:14.404Z,98976.59
2023-03-25T04:03:57.217Z,98977.44
2023-03-25T04:05:31.120Z,98989.75
2023-03-25T04:07:14.878Z,98988.91
2023-03-25T04:08:59.240Z,98985.19
2023-03-25T04:10:39.570Z,98992.97
2023-03-25T04:12:19.500Z,98987.59
2023-03-25T04:13:55.874Z,98984.75
2023-03-25T04:15:27.723Z,98985.59
2023-03-25T04:16:59.915Z,98984.75
2023-03-25T04:18:33.905Z,98983.91
2023-03-25T04:20:11.493Z,98984.75
2023-03-25T04:21:43.242Z,98981.09
2023-03-25T04:23:16.642Z,98983.63
2023-03-25T04:24:55.183Z,98989.84
2023-03-25T04:26:34.345Z,98985.28
2023-03-25T04:28:07.330Z,98989.69
2023-03-25T04:29:40.914Z,98987.00
2023-03-25T04:31:17.961Z,98992.38
2023-03-25T04:32:49.744Z,98988.69
2023-03-25T04:34:21.621Z,98982.31
2023-03-25T04:35:53.699Z,98978.66
2023-03-25T04:37:26.503Z,98978.50
2023-03-25T04:38:58.218Z,98982.72
2023-03-25T04:40:30.274Z,98982.56
2023-03-25T04:42:03.275Z,98984.41
2023-03-25T04:43:35.083Z,98986.81
2023-03-25T04:45:07.609Z,98988.50
2023-03-25T04:49:46.044Z,98997.97
2023-03-25T04:51:17.753Z,98992.59
2023-03-25T04:52:50.645Z,98994.28
2023-03-25T04:54:23.604Z,98996.97
2023-03-25T04:55:56.377Z,98995.84
2023-03-25T04:57:28.127Z,98984.06
2023-03-25T04:58:59.889Z,98999.38
2023-03-25T05:00:31.808Z,98989.31
2023-03-25T05:02:06.027Z,99001.75
2023-03-25T05:03:40.177Z,98992.84
2023-03-25T05:05:18.450Z,98991.00
2023-03-25T05:06:51.473Z,98984.63
2023-03-25T05:08:23.307Z,99014.19
2023-03-25T05:09:55.073Z,99002.75
2023-03-25T05:11:26.799Z,99006.28
2023-03-25T05:13:00.481Z,99011.81
2023-03-25T05:14:32.250Z,99006.41
2023-03-25T05:16:04.262Z,99001.88
2023-03-25T05:17:36.122Z,99006.41
2023-03-25T05:19:08.768Z,99010.66
2023-03-25T05:20:42.662Z,98997.09
2023-03-25T05:22:14.660Z,99015.91
2023-03-25T05:23:46.525Z,99008.38
2023-03-25T05:25:18.383Z,99003.00
2023-03-25T05:26:50.406Z,98997.63
2023-03-25T05:28:22.189Z,98998.31
2023-03-25T05:29:54.198Z,98994.47
2023-03-25T05:31:25.948Z,98998.72
2023-03-25T05:33:00.269Z,98997.88
2023-03-25T05:34:32.118Z,98994.00
2023-03-25T05:36:04.942Z,98999.25
2023-03-25T05:37:38.013Z,98993.88
2023-03-25T05:39:11.111Z,98993.63
2023-03-25T05:40:43.056Z,98997.16
2023-03-25T05:42:15.171Z,99002.34
2023-03-25T05:43:47.977Z,98992.59
2023-03-25T05:45:21.142Z,98997.84
2023-03-25T05:46:53.039Z,98998.69
2023-03-25T05:48:24.853Z,99002.22
2023-03-25T05:49:56.711Z,98999.53
2023-03-25T05:51:34.061Z,99013.81
2023-03-25T05:53:06.087Z,98998.53
2023-03-25T05:54:41.774Z,99009.28
2023-03-25T05:56:13.593Z,99013.69
2023-03-25T05:57:45.396Z,99014.38
2023-03-25T05:59:17.642Z,99014.38
2023-03-25T06:00:49.776Z,99013.41
2023-03-25T06:02:22.421Z,99032.34
2023-03-25T06:03:57.503Z,99032.34
2023-03-25T06:05:30.335Z,99026.13
2023-03-25T06:07:03.942Z,99034.22
2023-03-25T06:08:35.797Z,99029.84
2023-03-25T06:10:08.297Z,99039.72
2023-03-25T06:11:40.226Z,99044.25
2023-03-25T06:13:12.038Z,99045.28
2023-03-25T06:14:45.619Z,99045.41
2023-03-25T06:16:22.715Z,99048.25
2023-03-25T06:17:58.973Z,99046.66
2023-03-25T06:19:30.851Z,99049.66
2023-03-25T06:21:03.409Z,99042.75
2023-03-25T06:22:37.874Z,99050.25
2023-03-25T06:24:09.682Z,99054.22
2023-03-25T06:25:41.504Z,99051.72
2023-03-25T06:27:16.512Z,99055.66
2023-03-25T06:28:48.704Z,99048.91
2023-03-25T06:30:21.825Z,99054.56
2023-03-25T06:31:53.684Z,99052.34
2023-03-25T06:33:42.789Z,99056.16
2023-03-25T06:35:20.012Z,99056.31
2023-03-25T06:36:54.258Z,99060.97
2023-03-25T06:38:26.466Z,99052.91
2023-03-25T06:40:18.604Z,99051.22
2023-03-25T06:41:51.458Z,99050.34
2023-03-25T06:43:32.270Z,99051.22
2023-03-25T06:45:25.660Z,99056.00
2023-03-25T06:47:16.286Z,99056.00
2023-03-25T06:48:56.944Z,99049.34
2023-03-25T06:50:28.761Z,99057.25
2023-03-25T06:52:00.761Z,99059.66
2023-03-25T06:53:32.992Z,99057.50
2023-03-25T06:55:05.237Z,99066.13
2023-03-25T06:56:37.161Z,99059.63
2023-03-25T06:58:09.138Z,99073.59
2023-03-25T06:59:41.011Z,99070.34
2023-03-25T07:01:13.112Z,99077.97
2023-03-25T07:02:44.942Z,99073.00
2023-03-25T07:04:18.408Z,99076.78
2023-03-25T07:05:51.519Z,99077.91
2023-03-25T07:07:23.470Z,99076.31
2023-03-25T07:08:55.325Z,99071.00
2023-03-25T07:10:27.434Z,99069.97
2023-03-25T07:11:59.249Z,99065.50
2023-03-25T07:13:31.501Z,99066.44
2023-03-25T07:15:03.500Z,99069.91
2023-03-25T07:16:36.430Z,99069.81
2023-03-25T07:18:08.299Z,99070.59
2023-03-25T07:19:40.098Z,99070.38
2023-03-25T07:21:11.945Z,99072.97
2023-03-25T07:22:43.875Z,99073.59
2023-03-25T07:24:15.922Z,99078.75
2023-03-25T07:25:48.232Z,99075.63
2023-03-25T07:27:20.065Z,99084.28
2023-03-25T07:29:01.364Z,99072.94
2023-03-25T07:30:33.196Z,99087.81
2023-03-25T07:32:05.465Z,99083.69
2023-03-25T07:33:37.401Z,99079.00
2023-03-25T07:35:09.685Z,99078.88
2023-03-25T07:36:41.459Z,99078.09
2023-03-25T07:38:13.233Z,99080.13
2023-03-25T07:39:45.027Z,99076.94
2023-03-25T07:41:16.828Z,99089.97
2023-03-25T07:43:01.449Z,99080.84
2023-03-25T07:44:54.267Z,99077.47
2023-03-25T07:46:27.515Z,99087.75
2023-03-25T07:48:02.674Z,99091.78
2023-03-25T07:49:34.507Z,99089.25
2023-03-25T07:51:06.649Z,99087.03
2023-03-25T07:52:38.410Z,99096.47
2023-03-25T07:54:10.824Z,99099.63
2023-03-25T07:55:42.599Z,99099.97
2023-03-25T07:57:14.472Z,99107.38
2023-03-25T07:58:46.644Z,99111.06
2023-03-25T08:00:18.810Z,99109.38
2023-03-25T08:01:50.644Z,99110.25
2023-03-25T08:03:23.229Z,99109.03
2023-03-25T08:04:56.080Z,99112.75
2023-03-25T08:06:27.885Z,99117.00
2023-03-25T08:08:02.547Z,99121.56
2023-03-25T08:09:34.455Z,99114.31
2023-03-25T08:11:06.773Z,99120.72
2023-03-25T08:12:38.576Z,99119.84
2023-03-25T08:14:10.472Z,99122.72
2023-03-25T08:15:42.312Z,99126.44
2023-03-25T08:17:14.361Z,99118.16
2023-03-25T08:18:52.929Z,99121.88
2023-03-25T08:20:24.765Z,99127.59
2023-03-25T08:21:56.578Z,99125.34
2023-03-25T08:23:28.397Z,99125.34
2023-03-25T08:25:00.191Z,99130.41
2023-03-25T08:26:33.973Z,99123.09
2023-03-25T08:28:06.549Z,99134.56
2023-03-25T08:29:39.570Z,99141.03
2023-03-25T08:31:12.109Z,99134.59
2023-03-25T08:32:46.445Z,99138.53
2023-03-25T08:34:21.224Z,99133.25
2023-03-25T08:35:53.486Z,99132.34
2023-03-25T08:37:26.145Z,99129.75
2023-03-25T08:38:57.970Z,99135.22
2023-03-25T08:40:29.755Z,99144.03
2023-03-25T08:42:01.534Z,99151.03
2023-03-25T08:43:33.331Z,99157.34
2023-03-25T08:45:06.512Z,99152.56
2023-03-25T08:46:38.710Z,99161.41
2023-03-25T08:48:10.721Z,99170.25
2023-03-25T08:49:42.532Z,99160.22
2023-03-25T08:51:14.294Z,99167.38
2023-03-25T08:52:46.195Z,99174.31
2023-03-25T08:54:18.009Z,99176.09
2023-03-25T08:55:53.571Z,99186.91
2023-03-25T08:57:25.565Z,99177.84
2023-03-25T08:58:57.324Z,99175.91
2023-03-25T09:00:29.499Z,99170.56
2023-03-25T09:02:01.668Z,99175.94
2023-03-25T09:03:34.144Z,99180.91
2023-03-25T09:05:06.584Z,99187.00
2023-03-25T09:06:48.078Z,99175.84
2023-03-25T09:08:32.875Z,99181.09
2023-03-25T09:10:05.959Z,99175.44
2023-03-25T09:11:38.286Z,99168.63
2023-03-25T09:13:10.091Z,99176.16
2023-03-25T09:14:42.078Z,99183.66
2023-03-25T09:16:14.098Z,99180.13
2023-03-25T09:17:45.997Z,99189.47
2023-03-25T09:19:17.806Z,99191.31
2023-03-25T09:20:49.803Z,99188.75
2023-03-25T09:22:21.626Z,99196.13
2023-03-25T09:23:53.416Z,99184.50
2023-03-25T09:25:25.985Z,99189.03
2023-03-25T09:26:57.756Z,99191.88
2023-03-25T09:28:29.902Z,99188.34
2023-03-25T09:30:02.081Z,99193.00
2023-03-25T09:31:34.061Z,99183.38
2023-03-25T09:33:07.050Z,99171.06
2023-03-25T09:34:39.661Z,99158.78
2023-03-25T09:36:11.898Z,99166.13
2023-03-25T09:37:44.665Z,99159.91
2023-03-25T09:39:16.803Z,99150.16
2023-03-25T09:40:49.180Z,99164.28
2023-03-25T09:42:48.711Z,99169.81
2023-03-25T09:44:57.263Z,99156.94
2023-03-25T09:46:29.133Z,99153.53
2023-03-25T09:48:19.412Z,99151.41
2023-03-25T09:49:57.109Z,99152.25
2023-03-25T09:51:36.726Z,99153.09
2023-03-25T09:53:25.999Z,99143.72
2023-03-25T09:55:03.400Z,99139.97
2023-03-25T09:56:42.270Z,99134.09
2023-03-25T09:58:34.616Z,99133.81
2023-03-25T10:00:07.159Z,99132.47
2023-03-25T10:01:57.353Z,99129.41
2023-03-25T10:03:48.341Z,99129.69
2023-03-25T10:05:39.564Z,99132.94
2023-03-25T10:08:01.617Z,99132.47
2023-03-25T10:09:39.256Z,99128.72
2023-03-25T10:11:31.026Z,99131.13
2023-03-25T10:13:13.094Z,99129.38
2023-03-25T10:15:15.726Z,99132.44
2023-03-25T10:17:06.167Z,99123.84
2023-03-25T10:19:03.756Z,99119.84
2023-03-25T10:20:47.791Z,99114.97
2023-03-25T10:22:28.521Z,99111.22
2023-03-25T10:24:16.727Z,99122.22
2023-03-25T10:25:57.421Z,99130.31
2023-03-25T10:27:40.023Z,99115.03
2023-03-25T10:29:20.821Z,99112.44
2023-03-25T10:30:54.351Z,99114.09
2023-03-25T10:32:40.486Z,99109.28
2023-03-25T10:34:18.749Z,99118.50
2023-03-25T10:35:56.210Z,99102.97
2023-03-25T10:37:36.767Z,99112.19
2023-03-25T10:39:21.574Z,99108.06
2023-03-25T10:41:14.723Z,99121.19
2023-03-25T10:42:58.458Z,99110.19
2023-03-25T10:44:31.265Z,99119.50
2023-03-25T10:46:15.280Z,99121.63
2023-03-25T10:47:48.521Z,99125.25
2023-03-25T10:49:28.570Z,99141.31
2023-03-25T10:51:08.485Z,99146.88
2023-03-25T10:52:40.562Z,99123.97
2023-03-25T10:54:14.027Z,99113.88
2023-03-25T10:55:48.173Z,99115.63
2023-03-25T10:57:27.999Z,99125.63
2023-03-25T10:59:07.634Z,99114.75
2023-03-25T11:00:40.777Z,99123.97
2023-03-25T11:02:27.387Z,99119.81
2023-03-25T11:04:00.825Z,99118.34
2023-03-25T11:05:34.188Z,99112.88
2023-03-25T11:07:16.750Z,99100.84
2023-03-25T11:09:14.217Z,99119.53
2023-03-25T11:10:49.298Z,99125.91
2023-03-25T11:12:33.233Z,99123.22
2023-03-25T11:14:09.927Z,99108.72
2023-03-25T11:15:42.745Z,99094.94
2023-03-25T11:17:18.803Z,99105.72
2023-03-25T11:18:53.189Z,99110.09
2023-03-25T11:20:35.839Z,99108.56
2023-03-25T11:22:19.080Z,99117.50
2023-03-25T11:23:52.382Z,99121.91
2023-03-25T11:25:29.476Z,99107.19
2023-03-25T11:27:01.979Z,99121.84
2023-03-25T11:28:46.683Z,99116.41
2023-03-25T11:30:23.656Z,99112.69
2023-03-25T11:31:59.024Z,99112.69
2023-03-25T11:33:31.798Z,99108.00
2023-03-25T11:35:14.214Z,99095.88
2023-03-25T11:37:02.040Z,99100.63
2023-03-25T11:38:38.424Z,99096.66
2023-03-25T11:40:18.879Z,99106.84
2023-03-25T11:41:52.200Z,99091.78
2023-03-25T11:43:27.300Z,99093.69
2023-03-25T11:45:01.163Z,99082.59
2023-03-25T11:46:34.646Z,99082.44
2023-03-25T11:48:15.903Z,99069.31
2023-03-25T11:49:49.769Z,99071.69
2023-03-25T11:51:32.787Z,99069.31
2023-03-25T11:53:06.355Z,99059.16
2023-03-25T11:54:38.597Z,99059.94
2023-03-25T11:56:12.337Z,99062.25
2023-03-25T11:57:46.666Z,99052.19
2023-03-25T11:59:46.526Z,99052.34
2023-03-25T12:01:41.352Z,99040.41
2023-03-25T12:03:20.314Z,99046.56
2023-03-25T12:04:57.111Z,99036.63
2023-03-25T12:06:30.232Z,99040.78
2023-03-25T12:08:20.202Z,99034.75
2023-03-25T12:09:58.143Z,99042.13
2023-03-25T12:11:42.642Z,99036.94
2023-03-25T12:14:01.776Z,99028.34
2023-03-25T12:15:45.237Z,99033.78
2023-03-25T12:17:41.242Z,99023.88
2023-03-25T12:19:27.658Z,99022.94
2023-03-25T12:21:32.203Z,99021.81
2023-03-25T12:23:39.596Z,99019.03
2023-03-25T12:25:49.068Z,99044.00
2023-03-25T12:27:36.244Z,99025.75
2023-03-25T12:29:28.692Z,99024.00
2023-03-25T12:31:18.138Z,99018.25
2023-03-25T12:33:09.895Z,99014.56
2023-03-25T12:34:59.825Z,99018.03
2023-03-25T12:36:51.688Z,99004.31
2023-03-25T12:38:26.844Z,99004.66
2023-03-25T12:40:28.007Z,98998.06
2023-03-25T12:42:18.965Z,98998.91
2023-03-25T12:44:01.912Z,99018.19
2023-03-25T12:46:08.407Z,99054.72
2023-03-25T12:47:43.776Z,99067.56
2023-03-25T12:49:49.444Z,99038.84
2023-03-25T12:51:48.220Z,99031.00
2023-03-25T12:54:14.234Z,99019.09
2023-03-25T12:56:11.108Z,99010.69
2023-03-25T12:58:12.896Z,99001.78
2023-03-25T13:00:04.169Z,98994.78
2023-03-25T13:02:04.090Z,98994.91
2023-03-25T13:03:56.634Z,98990.41
2023-03-25T13:05:56.809Z,98994.59
2023-03-25T13:07:35.007Z,98990.38
2023-03-25T13:09:18.234Z,98995.03
2023-03-25T13:10:58.656Z,98986.09
2023-03-25T13:12:33.795Z,98978.53
2023-03-25T13:14:14.751Z,98978.56
2023-03-25T13:15:58.477Z,98978.63
2023-03-25T13:17:36.074Z,98966.66
2023-03-25T13:19:14.610Z,98975.69
2023-03-25T13:20:59.801Z,98975.34
2023-03-25T13:22:39.871Z,98972.50
2023-03-25T13:24:22.559Z,98967.63
2023-03-25T13:25:59.454Z,98967.97
2023-03-25T13:27:34.652Z,98966.25
2023-03-25T13:29:26.404Z,98958.34
2023-03-25T13:31:00.532Z,98957.97
2023-03-25T13:32:48.283Z,98957.63
2023-03-25T13:34:31.803Z,98944.38
2023-03-25T13:36:26.197Z,98948.28
2023-03-25T13:38:04.824Z,98951.44
2023-03-25T13:40:12.245Z,98944.44
2023-03-25T13:41:52.092Z,98941.47
2023-03-25T13:43:36.364Z,98942.63
2023-03-25T13:45:17.615Z,98939.88
2023-03-25T13:46:58.884Z,98947.44
2023-03-25T13:48:37.072Z,98937.28
2023-03-25T13:50:30.708Z,98938.69
2023-03-25T13:52:02.748Z,98949.94
2023-03-25T13:53:39.818Z,98944.63
2023-03-25T13:55:30.116Z,98941.81
2023-03-25T13:57:09.355Z,98946.84
2023-03-25T13:58:53.270Z,98946.38
2023-03-25T14:00:52.858Z,98955.91
2023-03-25T14:02:34.599Z,98945.44
2023-03-25T14:04:25.233Z,98938.25
2023-03-25T14:06:21.279Z,98946.84
2023-03-25T14:08:14.870Z,98948.53
2023-03-25T14:10:22.119Z,98945.25
2023-03-25T14:11:59.731Z,98950.97
2023-03-25T14:13:38.688Z,98953.31
2023-03-25T14:15:22.470Z,98945.44
2023-03-25T14:16:58.764Z,98945.50
2023-03-25T14:18:32.389Z,98943.91
2023-03-25T14:20:08.750Z,98938.59
2023-03-25T14:21:44.735Z,98931.81
2023-03-25T14:23:21.170Z,98931.97
2023-03-25T14:24:53.957Z,98927.69
2023-03-25T14:26:26.431Z,98927.19
2023-03-25T14:27:58.387Z,98942.13
2023-03-25T14:29:42.127Z,98941.09
2023-03-25T14:31:14.310Z,98944.25
2023-03-25T14:32:46.893Z,98954.91
2023-03-25T14:34:23.694Z,99012.09
2023-03-25T14:35:56.375Z,99026.56
2023-03-25T14:37:30.693Z,99049.44
2023-03-25T14:39:02.503Z,99047.19
2023-03-25T14:40:54.563Z,99059.41
2023-03-25T14:42:43.306Z,99049.94
2023-03-25T14:44:19.504Z,99062.41
2023-03-25T14:46:06.478Z,99073.00
2023-03-25T14:47:52.203Z,99076.00
2023-03-25T14:49:30.308Z,99033.81
2023-03-25T14:51:27.577Z,99034.69
2023-03-25T14:53:06.657Z,99018.78
2023-03-25T14:54:41.562Z,99020.22
2023-03-25T14:56:19.885Z,99019.78
2023-03-25T14:57:59.482Z,99021.38
2023-03-25T14:59:37.082Z,99023.22
2023-03-25T15:01:14.910Z,99014.81
2023-03-25T15:02:53.452Z,99024.41
2023-03-25T15:04:31.649Z,99025.59
2023-03-25T15:06:05.175Z,99022.75
2023-03-25T15:07:43.506Z,99028.94
2023-03-25T15:09:17.427Z,99024.94
2023-03-25T15:11:02.652Z,99019.09
2023-03-25T15:12:38.829Z,99011.91
2023-03-25T15:14:17.308Z,99017.53
2023-03-25T15:15:50.993Z,99029.84
2023-03-25T15:17:46.405Z,99029.03
2023-03-25T15:19:19.892Z,99014.75
2023-03-25T15:20:52.439Z,99033.84
2023-03-25T15:22:24.559Z,99026.66
2023-03-25T15:24:10.301Z,99032.88
2023-03-25T15:25:43.787Z,99018.84
2023-03-25T15:27:46.239Z,99024.47
2023-03-25T15:29:31.762Z,99020.47
2023-03-25T15:31:29.407Z,99014.56
2023-03-25T15:33:07.581Z,99012.88
2023-03-25T15:35:10.477Z,99016.72
2023-03-25T15:36:48.083Z,99020.81
2023-03-25T15:39:01.542Z,99012.56
2023-03-25T15:41:00.669Z,99016.16
2023-03-25T15:42:51.673Z,99014.78
2023-03-25T15:44:42.364Z,99022.13
2023-03-25T15:46:28.613Z,99008.53
2023-03-25T15:48:27.556Z,99007.44
2023-03-25T15:50:24.093Z,99009.97
2023-03-25T15:52:29.626Z,99013.34
2023-03-25T15:54:33.099Z,99018.06
2023-03-25T15:56:16.689Z,99005.75
2023-03-25T15:57:59.416Z,99020.09
2023-03-25T15:59:36.195Z,99016.88
2023-03-25T16:01:24.672Z,99024.84
2023-03-25T16:03:02.624Z,99029.91
2023-03-25T16:04:44.253Z,99020.81
2023-03-25T16:06:17.980Z,99032.63
2023-03-25T16:07:50.255Z,99026.53
2023-03-25T16:09:28.511Z,99033.59
2023-03-25T16:11:19.209Z,99024.31
2023-03-25T16:12:51.117Z,99030.25
2023-03-25T16:14:22.930Z,99021.13
2023-03-25T16:15:58.301Z,99019.13
2023-03-25T16:17:34.334Z,99029.25
2023-03-25T16:19:12.034Z,99030.63
2023-03-25T16:20:46.151Z,99037.91
2023-03-25T16:22:28.403Z,99033.56
2023-03-25T16:24:05.216Z,99031.22
2023-03-25T16:25:41.154Z,99025.31
2023-03-25T16:27:21.591Z,99040.84
2023-03-25T16:28:53.479Z,99031.72
2023-03-25T16:30:37.036Z,99037.13
2023-03-25T16:32:19.283Z,99029.84
2023-03-25T16:33:52.044Z,99037.44
2023-03-25T16:35:26.349Z,99041.63
2023-03-25T16:36:58.233Z,99042.59
2023-03-25T16:38:31.691Z,99040.84
2023-03-25T16:40:06.372Z,99037.44
2023-03-25T16:41:38.534Z,99039.25
2023-03-25T16:43:17.800Z,99029.78
2023-03-25T16:44:49.803Z,99034.28
2023-03-25T16:46:23.744Z,99030.16
2023-03-25T16:47:56.859Z,99034.97
2023-03-25T16:49:34.301Z,99030.00
2023-03-25T16:51:13.697Z,99032.09
2023-03-25T16:52:46.371Z,99041.25
2023-03-25T16:55:08.114Z,99034.19
2023-03-25T16:56:40.618Z,99032.44
2023-03-25T16:58:22.644Z,99031.13
2023-03-25T16:59:56.259Z,99023.97
2023-03-25T17:01:32.316Z,99027.75
2023-03-25T17:03:06.165Z,99031.66
2023-03-25T17:04:42.302Z,99029.84
2023-03-25T17:06:30.700Z,99025.00
2023-03-25T17:08:04.954Z,99028.28
2023-03-25T17:09:40.344Z,99019.38
2023-03-25T17:11:13.491Z,99027.34
2023-03-25T17:12:50.216Z,99030.91
2023-03-25T17:14:28.716Z,99032.81
2023-03-25T17:16:01.043Z,99029.19
2023-03-25T17:17:48.936Z,99033.88
2023-03-25T17:19:23.315Z,99033.44
2023-03-25T17:20:58.364Z,99027.13
2023-03-25T17:22:35.352Z,99032.53
2023-03-25T17:24:23.627Z,99026.31
2023-03-25T17:26:02.984Z,99024.22
2023-03-25T17:27:38.835Z,99037.38
2023-03-25T17:29:12.780Z,99036.38
2023-03-25T17:30:45.463Z,99038.91
2023-03-25T17:32:18.419Z,99041.31
2023-03-25T17:33:58.860Z,99041.00
2023-03-25T17:35:31.742Z,99047.94
2023-03-25T17:37:04.078Z,99046.66
2023-03-25T17:38:41.382Z,99048.06
2023-03-25T17:40:21.510Z,99042.53
2023-03-25T17:42:24.872Z,99040.69
2023-03-25T17:43:57.723Z,99046.78
2023-03-25T17:45:29.829Z,99041.84
2023-03-25T17:47:01.944Z,99049.44
2023-03-25T17:48:34.261Z,99047.03
2023-03-25T17:50:21.798Z,99041.50
2023-03-25T17:51:53.681Z,99044.16
2023-03-25T17:53:26.403Z,99043.59
2023-03-25T17:54:58.178Z,99048.41
2023-03-25T17:56:30.204Z,99048.66
2023-03-25T17:58:02.122Z,99039.34
2023-03-25T17:59:34.343Z,99039.63
2023-03-25T18:01:06.692Z,99030.13
2023-03-25T18:02:41.091Z,99033.09
2023-03-25T18:04:15.049Z,99034.34
2023-03-25T18:05:51.057Z,99037.31
2023-03-25T18:07:23.216Z,99038.56
2023-03-25T18:08:55.158Z,99044.47
2023-03-25T18:10:27.734Z,99046.56
2023-03-25T18:12:00.820Z,99059.38
2023-03-25T18:13:32.599Z,99057.81
2023-03-25T18:15:04.734Z,99059.91
2023-03-25T18:16:36.749Z,99059.06
2023-03-25T18:18:14.671Z,99062.88
2023-03-25T18:19:46.597Z,99065.44
2023-03-25T18:21:19.742Z,99069.66
2023-03-25T18:24:23.536Z,99061.34
2023-03-25T18:25:56.411Z,99066.31
2023-03-25T18:27:40.888Z,99069.56
2023-03-25T18:29:19.950Z,99076.09
2023-03-25T18:30:57.133Z,99081.03
2023-03-25T18:32:29.626Z,99092.06
2023-03-25T18:34:01.712Z,99109.59
2023-03-25T18:35:34.167Z,99107.09
2023-03-25T18:37:06.245Z,99122.63
2023-03-25T18:38:38.132Z,99115.03
2023-03-25T18:40:24.541Z,99126.09
2023-03-25T18:41:56.322Z,99115.38
2023-03-25T18:43:28.605Z,99102.38
2023-03-25T18:45:00.505Z,99098.16
2023-03-25T18:46:32.768Z,99086.03
2023-03-25T18:48:06.332Z,99086.50
2023-03-25T18:49:38.996Z,99082.53
2023-03-25T18:51:14.856Z,99087.34
2023-03-25T18:52:46.901Z,99078.16
2023-03-25T18:54:19.478Z,99083.25
2023-03-25T18:55:51.823Z,99083.81
2023-03-25T18:57:25.627Z,99080.03
2023-03-25T18:58:57.393Z,99082.47
2023-03-25T19:00:35.808Z,99082.31
2023-03-25T19:02:07.697Z,99082.88
2023-03-25T19:03:39.781Z,99090.06
2023-03-25T19:05:13.247Z,99081.88
2023-03-25T19:06:45.031Z,99071.13
2023-03-25T19:08:20.420Z,99069.44
2023-03-25T19:09:53.509Z,99081.88
2023-03-25T19:11:26.490Z,99079.34
2023-03-25T19:12:59.527Z,99069.72
2023-03-25T19:14:31.387Z,99059.25
2023-03-25T19:16:03.872Z,99077.47
2023-03-25T19:17:36.127Z,99078.59
2023-03-25T19:19:08.955Z,99083.25
2023-03-25T19:20:43.747Z,99077.31
2023-03-25T19:22:16.509Z,99073.19
2023-03-25T19:23:48.373Z,99073.63